Time;durP1;ratioP1;P1;durP2;ratioP2;P2;SDS_P1;SDS_P2;PMS_P1;PMS_P2;Temp;Humidity;BMP_temperature;BMP_pressure;BME280_temperature;BME280_humidity;BME280_pressure;Samples;Min_cycle;Max_cycle;Signal;HPM_P1;HPM_P2
2023/12/30 00:01:07;;;;;;;8.93;0.90;;;6.30;99.90;;;;;;4981727;28;20018;-82
2023/12/30 00:03:33;;;;;;;8.30;0.90;;;6.30;99.90;;;;;;4980309;28;20101;-82
2023/12/30 00:05:59;;;;;;;6.53;1.03;;;6.30;99.90;;;;;;4981490;28;20517;-82
2023/12/30 00:08:25;;;;;;;10.03;1.27;;;6.30;99.90;;;;;;4981838;28;20041;-83
2023/12/30 00:10:51;;;;;;;6.87;1.10;;;6.30;99.90;;;;;;4984946;28;20109;-83
2023/12/30 00:13:16;;;;;;;11.33;1.10;;;6.30;99.90;;;;;;4984640;28;20050;-83
2023/12/30 00:15:42;;;;;;;8.00;1.33;;;6.30;99.90;;;;;;4984682;28;20519;-85
2023/12/30 00:18:08;;;;;;;9.83;1.53;;;6.20;99.90;;;;;;4985012;28;20046;-83
2023/12/30 00:20:34;;;;;;;5.90;1.07;;;6.20;99.90;;;;;;4983696;28;20023;-84
2023/12/30 00:22:59;;;;;;;12.90;1.70;;;6.20;99.90;;;;;;4984807;28;20465;-84
2023/12/30 00:25:25;;;;;;;10.10;1.20;;;6.20;99.90;;;;;;5000106;28;20031;-84
2023/12/30 00:27:51;;;;;;;13.03;1.77;;;6.20;99.90;;;;;;4986238;28;20091;-83
2023/12/30 00:30:17;;;;;;;5.73;1.07;;;6.10;99.90;;;;;;4984407;28;20019;-83
2023/12/30 00:32:43;;;;;;;10.70;1.60;;;6.10;99.90;;;;;;4983941;28;20026;-83
2023/12/30 00:35:09;;;;;;;12.83;1.77;;;6.10;99.90;;;;;;4984256;28;20042;-83
2023/12/30 00:37:35;;;;;;;6.93;1.50;;;6.10;99.90;;;;;;4984386;28;20018;-83
2023/12/30 00:40:02;;;;;;;11.37;1.40;;;6.10;99.90;;;;;;4972239;28;20058;-83
2023/12/30 00:42:28;;;;;;;15.10;1.77;;;6.10;99.90;;;;;;4986834;28;20509;-83
2023/12/30 00:44:53;;;;;;;9.73;1.63;;;6.10;99.90;;;;;;5004520;28;20030;-82
2023/12/30 00:47:19;;;;;;;11.10;1.53;;;6.10;99.90;;;;;;5004815;28;20022;-83
2023/12/30 00:49:44;;;;;;;13.93;2.13;;;6.10;99.90;;;;;;4987216;28;20034;-82
2023/12/30 00:52:10;;;;;;;6.83;1.53;;;6.10;99.90;;;;;;4987537;28;20030;-82
2023/12/30 00:54:36;;;;;;;12.73;1.70;;;6.10;99.90;;;;;;4986873;28;20034;-82
2023/12/30 00:57:02;;;;;;;8.17;1.33;;;6.10;99.90;;;;;;4987910;28;20033;-82
2023/12/30 00:59:28;;;;;;;7.57;1.27;;;6.10;99.90;;;;;;4986573;28;20027;-83
2023/12/30 01:01:54;;;;;;;9.77;1.33;;;6.10;99.90;;;;;;4987462;28;20109;-82
2023/12/30 01:04:20;;;;;;;14.90;1.67;;;6.10;99.90;;;;;;4986585;28;20038;-82
2023/12/30 01:06:45;;;;;;;8.67;1.20;;;6.10;99.90;;;;;;4987346;28;20042;-82
2023/12/30 01:09:11;;;;;;;8.17;1.10;;;6.10;99.90;;;;;;4986940;28;20121;-82
2023/12/30 01:11:37;;;;;;;13.07;1.40;;;6.10;99.90;;;;;;4986783;28;20015;-84
2023/12/30 01:14:02;;;;;;;14.70;1.23;;;6.10;99.90;;;;;;4987768;28;20045;-83
2023/12/30 01:16:28;;;;;;;9.10;1.10;;;6.20;99.90;;;;;;5003717;28;20471;-83
2023/12/30 01:18:54;;;;;;;5.37;1.20;;;6.20;99.90;;;;;;4986891;28;20114;-83
2023/12/30 01:21:19;;;;;;;6.33;1.27;;;6.10;99.90;;;;;;4985604;28;20022;-83
2023/12/30 01:23:45;;;;;;;14.77;1.13;;;6.20;99.90;;;;;;4986783;28;20489;-83
2023/12/30 01:26:11;;;;;;;6.33;1.50;;;6.20;99.90;;;;;;4986355;28;20061;-83
2023/12/30 01:28:36;;;;;;;10.33;1.93;;;6.10;99.90;;;;;;4986367;28;20019;-83
2023/12/30 01:31:03;;;;;;;10.23;1.23;;;6.10;99.90;;;;;;4986943;28;20076;-82
2023/12/30 01:33:28;;;;;;;10.67;1.20;;;6.10;99.90;;;;;;4986166;28;20022;-82
2023/12/30 01:35:55;;;;;;;10.80;1.40;;;6.20;99.90;;;;;;4986814;28;20026;-83
2023/12/30 01:38:21;;;;;;;12.53;1.20;;;6.10;99.90;;;;;;4985617;28;20125;-82
2023/12/30 01:40:46;;;;;;;8.17;1.30;;;6.10;99.90;;;;;;5004373;28;20385;-83
2023/12/30 01:43:29;;;;;;;6.80;1.10;;;6.20;99.90;;;;;;5003764;28;20030;-82
2023/12/30 01:46:01;;;;;;;9.13;1.27;;;6.20;99.90;;;;;;4985849;28;20034;-82
2023/12/30 01:48:30;;;;;;;13.73;1.13;;;6.20;99.90;;;;;;4986994;28;20022;-82
2023/12/30 01:50:57;;;;;;;10.43;2.13;;;6.20;99.90;;;;;;5003255;28;20027;-82
2023/12/30 01:53:26;;;;;;;10.23;1.10;;;6.20;99.90;;;;;;4986425;28;20038;-83
2023/12/30 01:55:52;;;;;;;12.17;1.17;;;6.20;99.90;;;;;;4985706;28;20014;-83
2023/12/30 01:58:19;;;;;;;11.10;1.23;;;6.20;99.90;;;;;;4985785;28;20022;-82
2023/12/30 02:00:48;;;;;;;12.97;1.37;;;6.20;99.90;;;;;;4986175;28;20509;-83
2023/12/30 02:03:15;;;;;;;10.43;1.30;;;6.20;99.90;;;;;;4985108;28;20018;-83
2023/12/30 02:05:41;;;;;;;5.50;1.13;;;6.20;99.90;;;;;;4986879;28;20062;-83
2023/12/30 02:08:08;;;;;;;15.23;1.20;;;6.20;99.90;;;;;;4985304;28;20018;-83
2023/12/30 02:10:33;;;;;;;11.50;1.60;;;6.20;99.90;;;;;;4985904;28;20030;-83
2023/12/30 02:12:59;;;;;;;9.07;1.30;;;6.30;99.90;;;;;;4969375;28;20069;-83
2023/12/30 02:15:25;;;;;;;8.33;0.97;;;6.30;99.90;;;;;;4985800;28;20038;-83
2023/12/30 02:17:54;;;;;;;10.13;1.47;;;6.30;99.90;;;;;;4986150;28;20030;-83
2023/12/30 02:20:20;;;;;;;11.07;1.13;;;6.30;99.90;;;;;;4985188;28;20081;-82
2023/12/30 02:22:47;;;;;;;9.30;0.90;;;6.30;99.90;;;;;;4986298;28;20434;-82
2023/12/30 02:25:14;;;;;;;10.90;1.20;;;6.40;99.90;;;;;;4984744;28;20041;-81
2023/12/30 02:27:42;;;;;;;8.60;1.03;;;6.40;99.90;;;;;;4986006;28;20062;-81
2023/12/30 02:30:08;;;;;;;14.70;1.80;;;6.40;99.90;;;;;;4985128;28;20029;-82
2023/12/30 02:32:34;;;;;;;13.27;1.43;;;6.40;99.90;;;;;;4985634;28;20102;-81
2023/12/30 02:35:00;;;;;;;11.07;1.20;;;6.40;99.90;;;;;;4985363;28;20042;-82
2023/12/30 02:37:26;;;;;;;12.87;1.47;;;6.40;99.90;;;;;;4985025;28;20382;-81
2023/12/30 02:39:51;;;;;;;10.90;1.30;;;6.40;99.90;;;;;;4986032;28;20043;-82
2023/12/30 02:42:17;;;;;;;11.90;1.60;;;6.40;99.90;;;;;;5000852;28;20089;-82
2023/12/30 02:44:43;;;;;;;13.70;2.17;;;6.40;99.90;;;;;;4985607;28;20034;-82
2023/12/30 02:47:08;;;;;;;16.83;2.10;;;6.40;99.90;;;;;;4984670;28;20047;-82
2023/12/30 02:49:34;;;;;;;6.47;1.13;;;6.30;99.90;;;;;;4985413;28;20018;-84
2023/12/30 02:52:00;;;;;;;11.53;1.30;;;6.40;99.90;;;;;;4984998;28;20027;-83
2023/12/30 02:54:29;;;;;;;14.13;1.23;;;6.40;99.90;;;;;;4984758;28;20576;-82
2023/12/30 02:56:55;;;;;;;8.93;1.13;;;6.40;99.90;;;;;;4985868;28;20026;-82
2023/12/30 02:59:21;;;;;;;9.57;1.53;;;6.40;99.90;;;;;;5000533;28;20073;-82
2023/12/30 03:01:47;;;;;;;12.40;1.47;;;6.40;99.90;;;;;;4985707;28;20022;-83
2023/12/30 03:04:13;;;;;;;12.27;1.53;;;6.40;99.90;;;;;;4984663;28;20066;-83
2023/12/30 03:06:38;;;;;;;14.70;1.50;;;6.40;99.90;;;;;;4985004;28;20065;-83
2023/12/30 03:09:04;;;;;;;13.57;1.20;;;6.40;99.90;;;;;;4984654;28;20030;-83
2023/12/30 03:11:30;;;;;;;9.43;1.43;;;6.40;99.90;;;;;;4984822;28;20109;-83
2023/12/30 03:13:56;;;;;;;12.43;1.47;;;6.40;99.90;;;;;;4985235;28;20026;-83
2023/12/30 03:16:21;;;;;;;7.63;1.30;;;6.40;99.90;;;;;;4984379;28;20022;-83
2023/12/30 03:18:47;;;;;;;11.73;1.70;;;6.40;99.90;;;;;;4985593;28;20022;-83
2023/12/30 03:21:16;;;;;;;18.57;1.70;;;6.40;99.90;;;;;;4984056;28;20022;-83
2023/12/30 03:23:42;;;;;;;8.57;1.20;;;6.40;99.90;;;;;;4985146;28;20027;-83
2023/12/30 03:26:09;;;;;;;17.63;1.50;;;6.40;99.90;;;;;;4984525;28;20456;-83
2023/12/30 03:28:35;;;;;;;10.73;1.10;;;6.40;99.90;;;;;;4984501;28;20395;-83
2023/12/30 03:31:01;;;;;;;9.93;1.20;;;6.40;99.90;;;;;;4985082;28;20015;-83
2023/12/30 03:33:27;;;;;;;13.63;1.70;;;6.40;99.90;;;;;;4983916;28;20038;-82
2023/12/30 03:35:53;;;;;;;13.53;1.30;;;6.40;99.90;;;;;;4984485;28;20057;-83
2023/12/30 03:38:19;;;;;;;11.33;1.30;;;6.40;99.90;;;;;;4983872;28;20046;-82
2023/12/30 03:40:45;;;;;;;8.27;1.13;;;6.40;99.90;;;;;;4984795;28;20110;-83
2023/12/30 03:43:12;;;;;;;11.50;1.37;;;6.40;99.90;;;;;;4983798;28;20495;-83
2023/12/30 03:45:37;;;;;;;9.67;1.20;;;6.40;99.90;;;;;;4984851;28;20031;-83
2023/12/30 03:48:04;;;;;;;15.90;1.37;;;6.40;99.90;;;;;;4984791;28;20030;-83
2023/12/30 03:50:29;;;;;;;12.57;1.10;;;6.40;99.90;;;;;;4983903;28;20110;-83
2023/12/30 03:52:55;;;;;;;12.30;1.30;;;6.40;99.90;;;;;;4985081;28;20030;-83
2023/12/30 03:55:21;;;;;;;16.30;1.73;;;6.40;99.90;;;;;;4983717;28;20022;-83
2023/12/30 03:57:46;;;;;;;11.23;1.10;;;6.50;99.90;;;;;;4984407;28;20025;-83
2023/12/30 04:00:12;;;;;;;9.40;1.07;;;6.50;99.90;;;;;;4984072;28;20022;-83
2023/12/30 04:02:39;;;;;;;9.50;1.70;;;6.50;99.90;;;;;;4984494;28;20022;-84
2023/12/30 04:05:06;;;;;;;13.00;1.30;;;6.40;99.90;;;;;;5001621;28;20011;-83
2023/12/30 04:07:32;;;;;;;18.37;1.50;;;6.50;99.90;;;;;;4983789;28;20494;-83
2023/12/30 04:09:58;;;;;;;9.97;1.10;;;6.50;99.90;;;;;;4985179;28;20026;-83
2023/12/30 04:12:24;;;;;;;12.53;1.10;;;6.40;99.90;;;;;;5000863;28;20505;-83
2023/12/30 04:14:50;;;;;;;8.13;1.40;;;6.50;99.90;;;;;;4984868;28;20046;-84
2023/12/30 04:17:16;;;;;;;14.67;1.30;;;6.40;99.90;;;;;;5000051;28;20029;-83
2023/12/30 04:19:42;;;;;;;8.43;1.30;;;6.50;99.90;;;;;;4983747;28;20031;-83
2023/12/30 04:22:07;;;;;;;15.60;1.57;;;6.50;99.90;;;;;;4984030;28;20460;-83
2023/12/30 04:24:33;;;;;;;14.63;1.20;;;6.40;99.90;;;;;;4983736;28;20073;-82
2023/12/30 04:26:59;;;;;;;13.37;1.13;;;6.50;99.90;;;;;;4984203;28;20125;-82
2023/12/30 04:29:26;;;;;;;12.07;1.30;;;6.40;99.90;;;;;;4999764;28;20030;-84
2023/12/30 04:31:51;;;;;;;7.07;0.90;;;6.40;99.90;;;;;;4984696;28;20061;-82
2023/12/30 04:34:17;;;;;;;12.03;1.07;;;6.40;99.90;;;;;;4983128;28;20084;-82
2023/12/30 04:36:43;;;;;;;13.17;1.67;;;6.40;99.90;;;;;;4984198;28;20153;-82
2023/12/30 04:39:09;;;;;;;19.20;1.53;;;6.40;99.90;;;;;;4983737;28;20129;-82
2023/12/30 04:41:35;;;;;;;7.63;1.00;;;6.40;99.90;;;;;;4983876;28;20041;-83
2023/12/30 04:44:01;;;;;;;11.30;1.83;;;6.40;99.90;;;;;;4984544;28;20046;-82
2023/12/30 04:46:27;;;;;;;11.37;1.00;;;6.40;99.90;;;;;;4983419;28;20041;-83
2023/12/30 04:48:54;;;;;;;14.10;1.07;;;6.40;99.90;;;;;;4984377;28;20023;-82
2023/12/30 04:51:21;;;;;;;15.23;1.33;;;6.40;99.90;;;;;;4999665;28;20438;-82
2023/12/30 04:53:46;;;;;;;15.57;1.50;;;6.40;99.90;;;;;;4984114;28;20473;-82
2023/12/30 04:56:16;;;;;;;19.40;1.93;;;6.40;99.90;;;;;;4985874;28;20030;-82
2023/12/30 04:58:42;;;;;;;16.50;2.17;;;6.40;99.90;;;;;;4987123;28;20117;-83
2023/12/30 05:01:08;;;;;;;13.63;1.47;;;6.40;99.90;;;;;;4987937;28;20030;-83
2023/12/30 05:03:35;;;;;;;9.43;1.27;;;6.40;99.90;;;;;;5003863;28;20026;-82
2023/12/30 05:06:02;;;;;;;10.90;1.73;;;6.40;99.90;;;;;;4987638;28;20085;-83
2023/12/30 05:08:28;;;;;;;14.97;2.07;;;6.40;99.90;;;;;;4986738;28;20096;-82
2023/12/30 05:10:54;;;;;;;9.17;1.20;;;6.40;99.90;;;;;;4987192;28;20030;-82
2023/12/30 05:13:20;;;;;;;12.03;1.50;;;6.40;99.90;;;;;;4986648;28;20027;-82
2023/12/30 05:15:46;;;;;;;13.67;1.40;;;6.30;99.90;;;;;;4986318;28;20107;-83
2023/12/30 05:18:12;;;;;;;16.27;1.63;;;6.30;99.90;;;;;;4987259;28;20028;-83
2023/12/30 05:20:38;;;;;;;8.73;1.30;;;6.30;99.90;;;;;;4986347;28;20029;-83
2023/12/30 05:23:04;;;;;;;14.00;1.60;;;6.30;99.90;;;;;;4987350;28;20030;-83
2023/12/30 05:25:29;;;;;;;14.70;1.50;;;6.30;99.90;;;;;;5003798;28;20509;-82
2023/12/30 05:27:55;;;;;;;10.37;1.03;;;6.30;99.90;;;;;;5004633;28;20026;-82
2023/12/30 05:30:21;;;;;;;12.07;1.50;;;6.30;99.90;;;;;;4986055;28;20081;-83
2023/12/30 05:32:47;;;;;;;16.70;1.80;;;6.30;99.90;;;;;;4986703;28;20023;-83
2023/12/30 05:35:13;;;;;;;14.23;2.10;;;6.30;99.90;;;;;;5003781;28;20034;-83
2023/12/30 05:37:40;;;;;;;14.17;2.03;;;6.30;99.90;;;;;;4985881;28;20077;-83
2023/12/30 05:40:08;;;;;;;17.43;2.30;;;6.20;99.90;;;;;;4987118;28;20055;-82
2023/12/30 05:42:34;;;;;;;12.13;1.40;;;6.30;99.90;;;;;;4985698;28;20093;-83
2023/12/30 05:45:00;;;;;;;15.93;1.87;;;6.20;99.90;;;;;;4986921;28;20030;-83
2023/12/30 05:47:25;;;;;;;12.80;1.40;;;6.20;99.90;;;;;;4985929;28;20041;-83
2023/12/30 05:49:51;;;;;;;9.33;1.07;;;6.30;99.90;;;;;;4986499;28;20022;-83
2023/12/30 05:52:17;;;;;;;17.70;1.83;;;6.30;99.90;;;;;;4986228;28;20022;-83
2023/12/30 05:54:45;;;;;;;15.93;1.90;;;6.30;99.90;;;;;;4985809;28;20025;-82
2023/12/30 05:57:10;;;;;;;19.87;1.93;;;6.30;99.90;;;;;;4987859;28;20034;-83
2023/12/30 05:59:36;;;;;;;9.77;1.83;;;6.30;99.90;;;;;;4991221;28;20040;-83
2023/12/30 06:02:02;;;;;;;18.30;3.03;;;6.30;99.90;;;;;;5005883;28;20567;-83
2023/12/30 06:04:29;;;;;;;15.57;1.60;;;6.30;99.90;;;;;;5004908;28;20113;-83
2023/12/30 06:06:55;;;;;;;17.67;1.50;;;6.30;99.90;;;;;;5021651;28;20569;-82
2023/12/30 06:09:21;;;;;;;12.57;1.60;;;6.30;99.90;;;;;;5004892;28;20029;-83
2023/12/30 06:11:47;;;;;;;15.77;1.83;;;6.30;99.90;;;;;;5005247;28;20026;-82
2023/12/30 06:14:13;;;;;;;13.10;1.27;;;6.20;99.90;;;;;;5005890;28;20022;-82
2023/12/30 06:16:39;;;;;;;12.93;2.27;;;6.30;99.90;;;;;;5004508;28;20022;-82
2023/12/30 06:19:05;;;;;;;15.23;1.87;;;6.20;99.90;;;;;;5005658;28;20052;-82
2023/12/30 06:21:30;;;;;;;16.33;1.60;;;6.20;99.90;;;;;;5022418;28;20022;-82
2023/12/30 06:23:56;;;;;;;11.43;1.50;;;6.20;99.90;;;;;;5005471;28;20021;-82
2023/12/30 06:26:22;;;;;;;16.70;1.87;;;6.20;99.90;;;;;;5005003;28;20029;-82
2023/12/30 06:28:48;;;;;;;11.37;1.23;;;6.20;99.90;;;;;;5004477;28;20034;-82
2023/12/30 06:31:13;;;;;;;10.33;2.70;;;6.20;99.90;;;;;;5005799;28;20026;-82
2023/12/30 06:33:39;;;;;;;13.63;1.90;;;6.20;99.90;;;;;;5004763;28;20021;-83
2023/12/30 06:36:06;;;;;;;13.83;1.90;;;6.30;99.90;;;;;;5004905;28;20070;-83
2023/12/30 06:38:32;;;;;;;11.33;2.20;;;6.20;99.90;;;;;;5004379;28;20072;-82
2023/12/30 06:40:58;;;;;;;22.27;3.10;;;6.30;99.90;;;;;;5022840;28;20018;-82
2023/12/30 06:43:24;;;;;;;15.13;2.73;;;6.30;99.90;;;;;;5004349;28;20022;-82
2023/12/30 06:45:50;;;;;;;15.50;3.27;;;6.30;99.90;;;;;;5004852;28;20058;-82
2023/12/30 06:48:20;;;;;;;14.90;3.27;;;6.30;99.90;;;;;;5004894;28;20397;-82
2023/12/30 06:50:45;;;;;;;24.13;4.47;;;6.30;99.90;;;;;;5004197;28;20022;-82
2023/12/30 06:53:11;;;;;;;19.47;4.53;;;6.30;99.90;;;;;;5005103;28;20045;-83
2023/12/30 06:55:38;;;;;;;22.30;4.60;;;6.30;99.90;;;;;;5003818;28;20030;-82
2023/12/30 06:58:03;;;;;;;17.37;4.80;;;6.40;99.90;;;;;;5004775;28;20022;-82
2023/12/30 07:00:30;;;;;;;14.40;4.03;;;6.40;99.90;;;;;;5004131;28;20101;-82
2023/12/30 07:02:56;;;;;;;17.97;4.23;;;6.40;99.90;;;;;;5022290;28;20497;-81
2023/12/30 07:05:22;;;;;;;13.93;4.10;;;6.40;99.90;;;;;;5004065;28;20042;-83
2023/12/30 07:07:48;;;;;;;19.63;4.37;;;6.40;99.90;;;;;;5004203;28;20077;-83
2023/12/30 07:10:13;;;;;;;12.27;3.47;;;6.40;99.90;;;;;;5005244;28;20026;-82
2023/12/30 07:12:39;;;;;;;14.53;4.27;;;6.40;99.90;;;;;;5003462;28;20029;-83
2023/12/30 07:15:05;;;;;;;17.03;4.57;;;6.40;99.90;;;;;;5022483;28;20026;-82
2023/12/30 07:17:31;;;;;;;16.23;4.37;;;6.40;99.90;;;;;;5020787;28;20022;-82
2023/12/30 07:19:58;;;;;;;10.87;3.37;;;6.30;99.90;;;;;;5004040;28;20022;-83
2023/12/30 07:22:24;;;;;;;20.67;3.67;;;6.30;99.90;;;;;;5004163;28;20045;-81
2023/12/30 07:24:50;;;;;;;20.60;4.00;;;6.30;99.90;;;;;;5003818;28;20018;-82
2023/12/30 07:27:15;;;;;;;16.67;3.23;;;6.30;99.90;;;;;;5004478;28;20030;-82
2023/12/30 07:29:41;;;;;;;14.53;4.07;;;6.30;99.90;;;;;;5003533;28;20018;-82
2023/12/30 07:32:07;;;;;;;17.03;3.70;;;6.30;99.90;;;;;;5004326;28;20077;-82
2023/12/30 07:34:32;;;;;;;18.33;3.97;;;6.30;99.90;;;;;;5002846;28;20042;-81
2023/12/30 07:37:01;;;;;;;11.60;3.30;;;6.30;99.90;;;;;;5004358;28;20036;-81
2023/12/30 07:39:27;;;;;;;21.00;3.73;;;6.30;99.90;;;;;;5003953;28;20046;-82
2023/12/30 07:41:53;;;;;;;16.87;3.07;;;6.30;99.90;;;;;;5003615;28;20022;-82
2023/12/30 07:44:19;;;;;;;15.83;3.20;;;6.30;99.90;;;;;;5022529;28;20045;-82
2023/12/30 07:46:45;;;;;;;10.60;2.63;;;6.30;99.90;;;;;;5003429;28;20053;-82
2023/12/30 07:49:10;;;;;;;14.07;2.50;;;6.30;99.90;;;;;;5004278;28;20022;-82
2023/12/30 07:51:36;;;;;;;20.13;3.23;;;6.20;99.90;;;;;;5003465;28;20030;-82
2023/12/30 07:54:02;;;;;;;12.83;2.43;;;6.20;99.90;;;;;;5003027;28;20502;-82
2023/12/30 07:56:28;;;;;;;14.23;2.70;;;6.20;99.90;;;;;;5003065;28;20033;-80
2023/12/30 07:58:53;;;;;;;11.63;2.53;;;6.20;99.90;;;;;;5003747;28;20022;-81
2023/12/30 08:01:19;;;;;;;17.37;2.73;;;6.20;99.90;;;;;;5004581;28;20517;-81
2023/12/30 08:03:45;;;;;;;17.17;2.87;;;6.20;99.90;;;;;;5003268;28;20544;-81
2023/12/30 08:06:10;;;;;;;12.27;2.40;;;6.20;99.90;;;;;;5004159;28;20113;-82
2023/12/30 08:08:36;;;;;;;16.23;2.60;;;6.20;99.90;;;;;;5003601;28;20109;-82
2023/12/30 08:11:02;;;;;;;11.83;2.60;;;6.20;99.90;;;;;;5021593;28;20390;-82
2023/12/30 08:13:27;;;;;;;18.83;2.77;;;6.10;99.90;;;;;;5003548;28;20033;-82
2023/12/30 08:15:53;;;;;;;15.67;2.57;;;6.20;99.90;;;;;;5003838;28;20026;-82
2023/12/30 08:18:19;;;;;;;10.67;2.40;;;6.20;99.90;;;;;;5003679;28;20086;-82
2023/12/30 08:20:44;;;;;;;16.27;3.00;;;6.20;99.90;;;;;;5002885;28;20026;-83
2023/12/30 08:23:10;;;;;;;16.00;3.27;;;6.30;99.90;;;;;;5003887;28;20026;-81
2023/12/30 08:25:36;;;;;;;20.97;3.90;;;6.20;99.90;;;;;;5003045;28;20092;-82
2023/12/30 08:28:01;;;;;;;21.13;3.50;;;6.30;99.90;;;;;;5021578;28;20022;-82
2023/12/30 08:30:27;;;;;;;33.70;4.40;;;6.30;99.90;;;;;;5006345;28;20472;-81
2023/12/30 08:32:53;;;;;;;15.17;2.77;;;6.30;99.90;;;;;;5007528;28;20018;-82
2023/12/30 08:35:19;;;;;;;11.67;2.30;;;6.30;99.90;;;;;;5024598;28;20041;-87
2023/12/30 08:37:44;;;;;;;23.10;3.17;;;6.40;99.90;;;;;;5006761;28;20026;-83
2023/12/30 08:40:11;;;;;;;13.90;3.00;;;6.40;99.90;;;;;;5007593;28;20057;-81
2023/12/30 08:42:37;;;;;;;21.47;3.57;;;6.40;99.90;;;;;;5024403;28;20061;-80
2023/12/30 08:45:07;;;;;;;11.93;2.50;;;6.50;99.90;;;;;;5007225;28;20049;-81
2023/12/30 08:47:34;;;;;;;16.57;2.57;;;6.50;99.90;;;;;;5006310;28;20113;-81
2023/12/30 08:50:00;;;;;;;14.77;2.93;;;6.50;99.90;;;;;;5007059;28;20068;-82
2023/12/30 08:52:26;;;;;;;10.30;2.50;;;6.60;99.90;;;;;;5006870;28;20108;-81
2023/12/30 08:54:52;;;;;;;16.03;2.30;;;6.60;99.90;;;;;;5024444;28;20062;-82
2023/12/30 08:57:17;;;;;;;25.53;3.13;;;6.60;99.90;;;;;;5007304;28;20025;-81
2023/12/30 08:59:43;;;;;;;18.37;3.17;;;6.60;99.90;;;;;;5006296;28;20014;-81
2023/12/30 09:02:08;;;;;;;15.67;2.50;;;6.70;99.90;;;;;;5007018;28;20057;-81
2023/12/30 09:04:34;;;;;;;22.03;2.87;;;6.70;99.90;;;;;;5024166;28;20034;-82
2023/12/30 09:07:00;;;;;;;18.50;3.50;;;6.80;99.90;;;;;;5024909;28;20026;-81
2023/12/30 09:09:25;;;;;;;20.90;2.43;;;6.80;99.90;;;;;;5006567;28;20030;-81
2023/12/30 09:11:51;;;;;;;16.83;2.20;;;6.80;99.90;;;;;;5006916;28;20028;-81
2023/12/30 09:14:17;;;;;;;13.53;2.37;;;6.80;99.90;;;;;;5006369;28;20018;-81
2023/12/30 09:16:43;;;;;;;17.77;2.70;;;6.90;99.90;;;;;;5004089;28;20014;-81
2023/12/30 09:19:08;;;;;;;21.20;2.93;;;6.90;99.90;;;;;;5005282;28;20014;-81
2023/12/30 09:21:35;;;;;;;17.00;2.40;;;7.00;99.90;;;;;;5006316;28;20025;-81
2023/12/30 09:24:03;;;;;;;13.57;1.80;;;7.00;99.90;;;;;;5006369;28;20018;-82
2023/12/30 09:26:28;;;;;;;11.47;2.20;;;7.00;99.90;;;;;;5005801;28;20042;-82
2023/12/30 09:28:54;;;;;;;14.47;1.93;;;7.10;99.90;;;;;;5006381;28;20052;-82
2023/12/30 09:31:20;;;;;;;15.30;1.97;;;7.10;99.90;;;;;;5006418;28;20038;-80
2023/12/30 09:33:48;;;;;;;15.00;2.67;;;7.10;99.90;;;;;;5005922;28;20022;-82
2023/12/30 09:36:15;;;;;;;13.73;1.60;;;7.20;99.90;;;;;;5023801;28;20018;-82
2023/12/30 09:38:41;;;;;;;13.13;2.20;;;7.20;99.90;;;;;;5005098;28;20053;-82
2023/12/30 09:41:06;;;;;;;14.73;1.70;;;7.20;99.90;;;;;;5005592;28;20020;-82
2023/12/30 09:43:33;;;;;;;15.23;2.60;;;7.30;99.90;;;;;;5005686;28;20018;-82
2023/12/30 09:46:00;;;;;;;13.80;2.50;;;7.30;99.90;;;;;;5005694;28;20042;-82
2023/12/30 09:48:26;;;;;;;22.00;2.50;;;7.30;99.90;;;;;;5006244;28;20093;-81
2023/12/30 09:50:53;;;;;;;10.50;1.47;;;7.40;99.90;;;;;;5005411;28;20505;-80
2023/12/30 09:53:22;;;;;;;14.23;1.90;;;7.40;99.90;;;;;;5024223;28;20026;-82
2023/12/30 09:55:52;;;;;;;16.83;2.50;;;7.50;99.90;;;;;;5005443;28;20045;-81
2023/12/30 09:58:19;;;;;;;20.40;2.73;;;7.50;99.90;;;;;;5023390;28;20049;-81
2023/12/30 10:00:45;;;;;;;14.60;1.90;;;7.60;99.90;;;;;;5005095;28;20509;-82
2023/12/30 10:03:15;;;;;;;13.73;2.40;;;7.60;99.90;;;;;;5005750;28;20066;-81
2023/12/30 10:05:41;;;;;;;15.97;1.90;;;7.60;99.90;;;;;;5005169;28;20506;-82
2023/12/30 10:08:07;;;;;;;10.97;1.57;;;7.70;99.90;;;;;;5004470;28;20044;-82
2023/12/30 10:10:54;;;;;;;17.27;2.30;;;7.70;99.90;;;;;;5023104;28;20029;-81
2023/12/30 10:13:25;;;;;;;19.40;2.70;;;7.80;99.90;;;;;;5003586;28;20026;-81
2023/12/30 10:15:53;;;;;;;12.73;1.90;;;7.80;99.90;;;;;;5023366;28;20061;-80
2023/12/30 10:18:20;;;;;;;17.50;2.33;;;7.80;99.90;;;;;;5005534;28;20037;-80
2023/12/30 10:20:46;;;;;;;20.23;2.73;;;7.80;99.90;;;;;;5005148;28;20029;-80
2023/12/30 10:23:13;;;;;;;11.33;1.83;;;7.90;99.90;;;;;;5023632;28;20041;-81
2023/12/30 10:25:39;;;;;;;16.10;2.30;;;7.90;99.90;;;;;;5003539;28;20038;-81
2023/12/30 10:28:06;;;;;;;20.40;2.40;;;7.90;99.90;;;;;;5012586;28;20022;-81
2023/12/30 10:30:32;;;;;;;13.90;2.90;;;8.00;99.90;;;;;;5002787;28;20030;-81
2023/12/30 10:33:12;;;;;;;13.93;2.03;;;8.00;99.90;;;;;;5004861;28;20113;-81
2023/12/30 10:35:39;;;;;;;17.27;2.77;;;8.10;99.90;;;;;;5003249;28;20026;-81
2023/12/30 10:38:07;;;;;;;17.70;3.07;;;8.10;99.90;;;;;;5003085;28;20462;-81
2023/12/30 10:40:34;;;;;;;24.80;3.40;;;8.20;99.90;;;;;;5005393;28;20030;-81
2023/12/30 10:43:01;;;;;;;20.93;3.57;;;8.20;99.90;;;;;;5004191;28;20022;-81
2023/12/30 10:45:27;;;;;;;18.97;3.13;;;8.30;99.90;;;;;;5005164;28;20026;-81
2023/12/30 10:47:58;;;;;;;18.83;3.50;;;8.30;99.90;;;;;;5021532;28;20034;-81
2023/12/30 10:50:25;;;;;;;15.57;2.73;;;8.40;99.90;;;;;;5004202;28;20030;-81
2023/12/30 10:53:05;;;;;;;15.00;2.67;;;8.40;99.90;;;;;;5003933;28;20064;-81
2023/12/30 10:55:34;;;;;;;23.03;2.90;;;8.40;99.90;;;;;;5003829;28;20052;-81
2023/12/30 10:58:25;;;;;;;14.57;3.37;;;8.50;99.90;;;;;;5004768;28;20060;-82
2023/12/30 11:00:57;;;;;;;14.67;2.73;;;8.50;99.90;;;;;;5002694;28;20026;-81
2023/12/30 11:03:24;;;;;;;21.80;3.77;;;8.50;99.90;;;;;;5004427;28;20091;-81
2023/12/30 11:06:07;;;;;;;17.47;3.30;;;8.50;99.90;;;;;;5004205;28;20033;-81
2023/12/30 11:08:33;;;;;;;17.30;3.80;;;8.50;99.90;;;;;;4997542;28;20049;-80
2023/12/30 11:11:02;;;;;;;14.37;2.97;;;8.50;99.90;;;;;;5000857;28;20101;-80
2023/12/30 11:13:41;;;;;;;23.83;4.23;;;8.60;99.90;;;;;;5001877;28;20094;-82
2023/12/30 11:16:17;;;;;;;17.43;4.30;;;8.60;99.90;;;;;;4984648;28;20037;-81
2023/12/30 11:18:53;;;;;;;18.77;3.80;;;8.60;99.90;;;;;;5001446;28;20044;-81
2023/12/30 11:21:42;;;;;;;22.63;5.13;;;8.60;99.90;;;;;;5000321;28;20061;-81
2023/12/30 11:24:10;;;;;;;22.13;5.63;;;8.70;99.90;;;;;;5001316;28;20114;-81
2023/12/30 11:26:41;;;;;;;26.70;5.40;;;8.70;99.90;;;;;;5001571;28;20045;-81
2023/12/30 11:29:16;;;;;;;20.43;4.57;;;8.70;99.90;;;;;;5000555;28;20394;-81
2023/12/30 11:31:43;;;;;;;23.43;4.97;;;8.70;99.90;;;;;;5001441;28;20034;-79
2023/12/30 11:34:09;;;;;;;22.27;5.60;;;8.70;99.90;;;;;;5000189;28;20034;-80
2023/12/30 11:36:36;;;;;;;27.13;5.17;;;8.70;99.90;;;;;;5000690;28;20029;-81
2023/12/30 11:39:03;;;;;;;28.23;6.23;;;8.80;99.90;;;;;;4999967;28;20426;-81
2023/12/30 11:41:30;;;;;;;25.23;5.53;;;8.80;99.90;;;;;;5003050;28;20034;-81
2023/12/30 11:44:05;;;;;;;28.37;7.63;;;8.80;99.90;;;;;;5021717;28;20557;-81
2023/12/30 11:46:31;;;;;;;25.33;5.57;;;8.90;99.90;;;;;;5021617;28;20069;-81
2023/12/30 11:48:57;;;;;;;22.60;5.83;;;8.90;99.90;;;;;;5004633;28;20029;-81
2023/12/30 11:51:25;;;;;;;19.60;5.80;;;8.90;99.90;;;;;;5003365;28;20034;-82
2023/12/30 11:53:51;;;;;;;25.43;5.83;;;9.00;99.90;;;;;;5004154;28;20097;-81
2023/12/30 11:56:19;;;;;;;27.37;6.80;;;9.00;99.90;;;;;;5003608;28;20022;-81
2023/12/30 11:58:45;;;;;;;21.93;7.27;;;9.10;99.90;;;;;;5004368;28;20037;-81
2023/12/30 12:01:12;;;;;;;22.07;7.23;;;9.10;99.90;;;;;;5004277;28;20121;-80
2023/12/30 12:03:38;;;;;;;22.30;7.43;;;9.10;99.90;;;;;;5003925;28;20072;-81
2023/12/30 12:06:04;;;;;;;22.40;7.03;;;9.20;99.90;;;;;;5026247;28;20118;-81
2023/12/30 12:08:31;;;;;;;23.47;7.03;;;9.20;99.90;;;;;;5024635;28;20034;-80
2023/12/30 12:10:57;;;;;;;36.33;8.20;;;9.30;99.90;;;;;;5024876;28;20109;-82
2023/12/30 12:13:24;;;;;;;18.90;6.37;;;9.40;99.90;;;;;;5006796;28;20026;-81
2023/12/30 12:15:50;;;;;;;28.87;7.97;;;9.50;99.90;;;;;;5006028;28;20026;-81
2023/12/30 12:18:17;;;;;;;22.73;7.67;;;9.60;99.90;;;;;;5004064;28;20053;-82
2023/12/30 12:20:43;;;;;;;19.47;6.47;;;9.70;99.90;;;;;;5006603;28;20046;-81
2023/12/30 12:23:12;;;;;;;20.30;6.93;;;9.70;99.90;;;;;;5007608;28;20618;-81
2023/12/30 12:25:39;;;;;;;19.87;6.97;;;9.70;99.90;;;;;;5006608;28;20040;-81
2023/12/30 12:28:11;;;;;;;18.90;7.43;;;9.70;99.90;;;;;;5025551;28;20046;-81
2023/12/30 12:30:37;;;;;;;25.55;7.60;;;9.80;99.90;;;;;;5006751;28;20410;-81
2023/12/30 12:33:03;;;;;;;17.03;6.00;;;9.70;99.90;;;;;;5007719;28;20033;-81
2023/12/30 12:35:30;;;;;;;24.38;7.22;;;9.70;99.90;;;;;;5024845;28;20026;-81
2023/12/30 12:37:57;;;;;;;17.57;6.47;;;9.70;99.90;;;;;;5024591;28;20036;-81
2023/12/30 12:40:23;;;;;;;27.08;7.18;;;9.70;99.90;;;;;;5007339;28;20026;-81
2023/12/30 12:42:49;;;;;;;20.03;5.67;;;9.70;99.90;;;;;;5007059;28;20022;-82
2023/12/30 12:45:15;;;;;;;20.40;6.57;;;9.70;99.90;;;;;;5007593;28;20045;-81